Wallington, United Kingdom
Current Conditions -  °F | °C
As of 2:20 PM on Tuesday 21 Oct 2014 (Local Time) from EGKB Reporting Station
Scattered Clouds Scattered Clouds  
Wind Chill: 54°   Ceiling: Unl
Heat Index: 54°   Visibility: 6mi
Dew Point: 36°   Wind: 22mph
Humidity: 51%   Direction: 280°W
Pressure: 29.74"   Gusts: 36mph
Location:  51.36°N, 0.15°W
Report Text: EGKB 211320Z 28019G31KT 9999 SCT040 12/02 Q1007
Loading
Personal Weather Stations






























Interactive Weather Map New forecast layout! Learn more

10-Day Weather Forecast

Advertisements
Track Severe Weather on mobile